createdAt,value
2024-01-09T00:02:09.195Z,-5.68
2024-01-09T00:04:37.521Z,-5.62
2024-01-09T00:07:05.939Z,-5.54
2024-01-09T00:09:36.467Z,-5.62
2024-01-09T00:12:04.891Z,-5.56
2024-01-09T00:14:36.207Z,-5.61
2024-01-09T00:17:04.164Z,-5.61
2024-01-09T00:19:34.634Z,-5.62
2024-01-09T00:22:04.942Z,-5.60
2024-01-09T00:24:33.186Z,-5.71
2024-01-09T00:27:01.123Z,-5.64
2024-01-09T00:29:29.588Z,-5.61
2024-01-09T00:32:01.085Z,-5.59
2024-01-09T00:34:29.330Z,-5.64
2024-01-09T00:36:57.130Z,-5.65
2024-01-09T00:39:26.129Z,-5.67
2024-01-09T00:41:54.206Z,-5.66
2024-01-09T00:44:22.472Z,-5.71
2024-01-09T00:46:50.586Z,-5.67
2024-01-09T00:49:19.894Z,-5.70
2024-01-09T00:51:48.328Z,-5.66
2024-01-09T00:54:16.209Z,-5.67
2024-01-09T00:56:44.271Z,-5.69
2024-01-09T00:59:12.558Z,-5.69
2024-01-09T01:01:43.407Z,-5.63
2024-01-09T01:04:11.497Z,-5.66
2024-01-09T01:06:47.718Z,-5.62
2024-01-09T01:09:15.672Z,-5.66
2024-01-09T01:11:43.508Z,-5.62
2024-01-09T01:14:11.687Z,-5.69
2024-01-09T01:16:39.941Z,-5.73
2024-01-09T01:19:08.036Z,-5.75
2024-01-09T01:21:35.954Z,-5.79
2024-01-09T01:24:05.922Z,-5.77
2024-01-09T01:26:34.410Z,-5.82
2024-01-09T01:29:02.818Z,-5.76
2024-01-09T01:31:31.245Z,-5.75
2024-01-09T01:33:59.715Z,-5.79
2024-01-09T01:36:28.573Z,-5.74
2024-01-09T01:38:56.514Z,-5.83
2024-01-09T01:41:26.518Z,-5.82
2024-01-09T01:43:54.678Z,-5.84
2024-01-09T01:46:23.214Z,-5.82
2024-01-09T01:48:53.979Z,-5.84
2024-01-09T01:51:22.161Z,-5.79
2024-01-09T01:53:50.433Z,-5.80
2024-01-09T01:56:18.765Z,-5.79
2024-01-09T01:58:48.330Z,-5.81
2024-01-09T02:01:16.637Z,-5.84
2024-01-09T02:03:45.118Z,-5.86
2024-01-09T02:06:15.514Z,-5.92
2024-01-09T02:08:46.068Z,-5.88
2024-01-09T02:11:15.210Z,-5.89
2024-01-09T02:13:43.638Z,-5.94
2024-01-09T02:16:28.324Z,-5.93
2024-01-09T02:18:58.195Z,-5.89
2024-01-09T02:21:29.889Z,-5.94
2024-01-09T02:23:58.108Z,-5.95
2024-01-09T02:26:47.504Z,-5.98
2024-01-09T02:29:31.877Z,-5.92
2024-01-09T02:32:03.930Z,-5.94
2024-01-09T02:34:34.605Z,-5.97
2024-01-09T02:37:03.169Z,-6.01
2024-01-09T02:39:31.845Z,-5.97
2024-01-09T02:41:59.899Z,-5.98
2024-01-09T02:44:28.126Z,-6.02
2024-01-09T02:46:56.512Z,-6.04
2024-01-09T02:49:25.903Z,-6.06
2024-01-09T02:51:54.432Z,-6.06
2024-01-09T02:54:22.413Z,-5.99
2024-01-09T02:56:51.436Z,-6.11
2024-01-09T02:59:19.801Z,-6.14
2024-01-09T03:01:47.717Z,-6.06
2024-01-09T03:04:15.861Z,-6.05
2024-01-09T03:06:45.661Z,-6.08
2024-01-09T03:09:17.414Z,-6.17
2024-01-09T03:11:45.894Z,-6.16
2024-01-09T03:14:18.259Z,-6.17
2024-01-09T03:16:49.390Z,-6.19
2024-01-09T03:19:18.229Z,-6.16
2024-01-09T03:21:48.746Z,-6.17
2024-01-09T03:24:17.016Z,-6.20
2024-01-09T03:26:46.012Z,-6.23
2024-01-09T03:29:14.685Z,-6.18
2024-01-09T03:31:42.840Z,-6.17
2024-01-09T03:34:11.111Z,-6.17
2024-01-09T03:36:41.081Z,-6.21
2024-01-09T03:39:12.818Z,-6.27
2024-01-09T03:41:41.334Z,-6.21
2024-01-09T03:44:10.111Z,-6.27
2024-01-09T03:46:38.752Z,-6.22
2024-01-09T03:49:08.069Z,-6.21
2024-01-09T03:51:36.408Z,-6.22
2024-01-09T03:54:05.106Z,-6.20
2024-01-09T03:56:34.999Z,-6.19
2024-01-09T03:59:03.233Z,-6.16
2024-01-09T04:01:31.105Z,-6.24
2024-01-09T04:04:00.616Z,-6.25
2024-01-09T04:06:29.041Z,-6.26
2024-01-09T04:08:57.219Z,-6.25
2024-01-09T04:11:25.432Z,-6.26
2024-01-09T04:13:55.479Z,-6.26
2024-01-09T04:16:23.782Z,-6.28
2024-01-09T04:18:51.946Z,-6.27
2024-01-09T04:21:19.935Z,-6.35
2024-01-09T04:23:48.378Z,-6.26
2024-01-09T04:26:16.933Z,-6.24
2024-01-09T04:28:45.031Z,-6.34
2024-01-09T04:31:20.147Z,-6.23
2024-01-09T04:33:48.360Z,-6.33
2024-01-09T04:36:18.373Z,-6.34
2024-01-09T04:38:48.529Z,-6.37
2024-01-09T04:41:18.036Z,-6.33
2024-01-09T04:43:47.553Z,-6.36
2024-01-09T04:46:16.963Z,-6.41
2024-01-09T04:48:46.412Z,-6.38
2024-01-09T04:51:14.944Z,-6.38
2024-01-09T04:53:43.133Z,-6.37
2024-01-09T04:56:11.226Z,-6.44
2024-01-09T04:58:39.266Z,-6.44
2024-01-09T05:01:21.194Z,-6.38
2024-01-09T05:03:55.530Z,-6.39
2024-01-09T05:06:24.120Z,-6.40
2024-01-09T05:08:52.576Z,-6.41
2024-01-09T05:11:20.894Z,-6.46
2024-01-09T05:13:51.912Z,-6.49
2024-01-09T05:16:19.744Z,-6.48
2024-01-09T05:18:48.156Z,-6.39
2024-01-09T05:21:18.113Z,-6.39
2024-01-09T05:23:46.771Z,-6.54
2024-01-09T05:26:14.908Z,-6.50
2024-01-09T05:28:43.139Z,-6.47
2024-01-09T05:31:11.466Z,-6.48
2024-01-09T05:33:40.227Z,-6.43
2024-01-09T05:36:09.486Z,-6.47
2024-01-09T05:38:39.185Z,-6.46
2024-01-09T05:41:06.453Z,-6.50
2024-01-09T05:43:34.939Z,-6.51
2024-01-09T05:46:03.515Z,-6.40
2024-01-09T05:48:34.846Z,-6.46
2024-01-09T05:51:05.123Z,-6.46
2024-01-09T05:53:33.605Z,-6.46
2024-01-09T05:56:02.977Z,-6.55
2024-01-09T05:58:30.967Z,-6.61
2024-01-09T06:00:59.134Z,-6.62
2024-01-09T06:03:28.017Z,-6.66
2024-01-09T06:05:57.403Z,-6.62
2024-01-09T06:08:27.125Z,-6.62
2024-01-09T06:10:56.362Z,-6.63
2024-01-09T06:13:26.377Z,-6.60
2024-01-09T06:15:55.985Z,-6.69
2024-01-09T06:18:24.445Z,-6.66
2024-01-09T06:20:52.654Z,-6.57
2024-01-09T06:23:20.815Z,-6.61
2024-01-09T06:25:48.797Z,-6.63
2024-01-09T06:28:17.100Z,-6.56
2024-01-09T06:30:47.086Z,-6.57
2024-01-09T06:33:15.906Z,-6.52
2024-01-09T06:35:49.101Z,-6.49
2024-01-09T06:38:19.399Z,-6.53
2024-01-09T06:40:47.661Z,-6.49
2024-01-09T06:43:16.040Z,-6.48
2024-01-09T06:45:45.054Z,-6.54
2024-01-09T06:48:14.656Z,-6.53
2024-01-09T06:50:42.898Z,-6.50
2024-01-09T06:53:10.989Z,-6.53
2024-01-09T06:55:39.324Z,-6.55
2024-01-09T06:58:07.384Z,-6.61
2024-01-09T07:00:36.107Z,-6.57
2024-01-09T07:03:04.927Z,-6.57
2024-01-09T07:05:34.835Z,-6.62
2024-01-09T07:08:02.868Z,-6.54
2024-01-09T07:10:31.027Z,-6.51
2024-01-09T07:12:59.208Z,-6.54
2024-01-09T07:15:27.582Z,-6.51
2024-01-09T07:18:01.826Z,-6.47
2024-01-09T07:20:30.297Z,-6.38
2024-01-09T07:23:09.544Z,-6.40
2024-01-09T07:25:45.127Z,-6.44
2024-01-09T07:28:13.200Z,-6.43
2024-01-09T07:30:41.410Z,-6.44
2024-01-09T07:33:09.764Z,-6.43
2024-01-09T07:35:39.308Z,-6.32
2024-01-09T07:38:09.404Z,-6.30
2024-01-09T07:40:38.241Z,-6.19
2024-01-09T07:43:06.147Z,-6.28
2024-01-09T07:45:34.369Z,-6.32
2024-01-09T07:48:04.619Z,-6.30
2024-01-09T07:50:33.072Z,-6.22
2024-01-09T07:53:02.886Z,-6.19
2024-01-09T07:55:34.450Z,-6.10
2024-01-09T07:58:03.435Z,-6.08
2024-01-09T08:00:34.289Z,-6.06
2024-01-09T08:03:05.750Z,-6.05
2024-01-09T08:05:34.350Z,-6.00
2024-01-09T08:08:03.562Z,-5.98
2024-01-09T08:10:33.177Z,-5.86
2024-01-09T08:13:01.822Z,-5.84
2024-01-09T08:15:30.679Z,-5.86
2024-01-09T08:18:00.433Z,-5.80
2024-01-09T08:20:30.328Z,-5.73
2024-01-09T08:22:59.462Z,-5.57
2024-01-09T08:25:28.708Z,-5.52
2024-01-09T08:28:10.207Z,-5.44
2024-01-09T08:30:41.270Z,-5.50
2024-01-09T08:33:10.363Z,-5.43
2024-01-09T08:35:38.964Z,-5.48
2024-01-09T08:38:07.214Z,-5.43
2024-01-09T08:40:36.457Z,-5.36
2024-01-09T08:43:07.015Z,-5.30
2024-01-09T08:45:35.440Z,-5.21
2024-01-09T08:48:04.204Z,-5.13
2024-01-09T08:50:32.491Z,-5.09
2024-01-09T08:53:00.950Z,-4.86
2024-01-09T08:55:36.736Z,-4.69
2024-01-09T08:58:06.666Z,-4.67
2024-01-09T09:00:35.125Z,-4.54
2024-01-09T09:03:04.450Z,-4.63
2024-01-09T09:05:35.010Z,-4.57
2024-01-09T09:08:05.883Z,-4.21
2024-01-09T09:10:34.169Z,-4.31
2024-01-09T09:13:02.725Z,-4.05
2024-01-09T09:15:32.818Z,-3.57
2024-01-09T09:18:01.358Z,-3.59
2024-01-09T09:20:30.137Z,-3.39
2024-01-09T09:23:00.018Z,-3.58
2024-01-09T09:25:29.151Z,-2.95
2024-01-09T09:27:57.747Z,-2.97
2024-01-09T09:30:26.933Z,-2.63
2024-01-09T09:32:58.304Z,-2.48
2024-01-09T09:35:26.512Z,-2.48
2024-01-09T09:37:54.463Z,-2.40
2024-01-09T09:40:23.343Z,-1.92
2024-01-09T09:42:57.250Z,-2.12
2024-01-09T09:45:27.202Z,-1.72
2024-01-09T09:47:57.461Z,-1.66
2024-01-09T09:50:27.640Z,-1.34
2024-01-09T09:52:58.418Z,-0.82
2024-01-09T09:55:26.751Z,-0.33
2024-01-09T09:57:55.033Z,-0.70
2024-01-09T10:00:23.558Z,-1.03
2024-01-09T10:02:52.204Z,-1.14
2024-01-09T10:05:22.257Z,-0.74
2024-01-09T10:07:56.517Z,-0.71
2024-01-09T10:10:25.101Z,-0.88
2024-01-09T10:12:58.546Z,-0.51
2024-01-09T10:15:26.980Z,-0.90
2024-01-09T10:17:55.459Z,-0.22
2024-01-09T10:20:26.533Z,-0.46
2024-01-09T10:22:55.661Z,0.12
2024-01-09T10:25:24.463Z,0.02
2024-01-09T10:27:52.847Z,0.36
2024-01-09T10:30:24.578Z,0.08
2024-01-09T10:32:54.503Z,0.15
2024-01-09T10:35:28.490Z,0.65
2024-01-09T10:37:58.111Z,1.50
2024-01-09T10:40:30.404Z,0.81
2024-01-09T10:42:58.943Z,1.18
2024-01-09T10:45:28.465Z,2.12
2024-01-09T10:47:56.748Z,1.57
2024-01-09T10:50:27.152Z,2.21
2024-01-09T10:52:55.554Z,2.62
2024-01-09T10:55:26.140Z,3.19
2024-01-09T10:57:54.402Z,2.62
2024-01-09T11:00:25.529Z,3.77
2024-01-09T11:02:56.819Z,2.55
2024-01-09T11:05:26.720Z,2.26
2024-01-09T11:07:59.460Z,2.89
2024-01-09T11:10:29.197Z,2.72
2024-01-09T11:12:58.822Z,3.21
2024-01-09T11:15:32.907Z,3.46
2024-01-09T11:18:07.039Z,4.10
2024-01-09T11:20:37.580Z,3.73
2024-01-09T11:23:06.459Z,4.34
2024-01-09T11:25:36.764Z,4.03
2024-01-09T11:28:07.696Z,3.44
2024-01-09T11:30:38.680Z,4.31
2024-01-09T11:33:34.389Z,2.58
2024-01-09T11:36:08.858Z,3.49
2024-01-09T11:38:39.914Z,4.00
2024-01-09T11:41:11.427Z,4.56
2024-01-09T11:44:05.234Z,3.85
2024-01-09T11:46:36.561Z,4.14
2024-01-09T11:49:05.886Z,3.76
2024-01-09T11:51:36.050Z,3.79
2024-01-09T11:54:05.539Z,4.11
2024-01-09T11:56:33.921Z,4.91
2024-01-09T11:59:03.172Z,3.89
2024-01-09T12:01:31.212Z,4.06
2024-01-09T12:04:00.630Z,3.05
2024-01-09T12:06:31.073Z,3.81
2024-01-09T12:09:01.376Z,4.28
2024-01-09T12:11:30.219Z,3.50
2024-01-09T12:14:02.192Z,4.07
2024-01-09T12:16:31.542Z,4.38
2024-01-09T12:19:01.399Z,4.65
2024-01-09T12:21:32.922Z,3.28
2024-01-09T12:24:20.669Z,3.47
2024-01-09T12:26:53.900Z,3.42
2024-01-09T12:29:22.528Z,5.13
2024-01-09T12:31:52.500Z,5.67
2024-01-09T12:34:20.736Z,5.26
2024-01-09T12:36:49.804Z,5.47
2024-01-09T12:39:24.029Z,5.00
2024-01-09T12:41:54.817Z,6.60
2024-01-09T12:44:24.746Z,6.70
2024-01-09T12:46:55.163Z,5.38
2024-01-09T12:49:24.586Z,5.06
2024-01-09T12:51:56.773Z,5.21
2024-01-09T12:54:28.632Z,6.47
2024-01-09T12:57:00.064Z,6.84
2024-01-09T12:59:29.065Z,6.63
2024-01-09T13:01:57.644Z,7.94
2024-01-09T13:04:29.944Z,8.57
2024-01-09T13:07:00.993Z,5.62
2024-01-09T13:09:37.884Z,5.78
2024-01-09T13:12:10.410Z,7.34
2024-01-09T13:14:42.864Z,8.24
2024-01-09T13:17:11.208Z,6.88
2024-01-09T13:19:39.882Z,7.06
2024-01-09T13:23:46.098Z,4.88
2024-01-09T13:24:58.581Z,5.07
2024-01-09T13:27:26.992Z,5.65
2024-01-09T13:32:25.865Z,6.04
2024-01-09T13:34:54.369Z,6.92
2024-01-09T13:37:22.641Z,6.73
2024-01-09T13:39:50.593Z,5.13
2024-01-09T13:42:19.911Z,4.60
2024-01-09T13:44:48.365Z,4.08
2024-01-09T13:47:16.682Z,5.11
2024-01-09T13:52:17.889Z,3.45
2024-01-09T13:54:46.051Z,4.17
2024-01-09T13:57:15.354Z,3.72
2024-01-09T13:59:45.914Z,4.85
2024-01-09T14:02:15.292Z,4.96
2024-01-09T14:04:45.302Z,3.10
2024-01-09T14:07:13.780Z,3.61
2024-01-09T14:09:43.244Z,3.37
2024-01-09T14:12:11.531Z,3.39
2024-01-09T14:14:40.299Z,2.87
2024-01-09T14:17:10.200Z,3.40
2024-01-09T14:19:38.974Z,2.89
2024-01-09T14:22:07.358Z,2.73
2024-01-09T14:24:35.964Z,2.84
2024-01-09T14:27:04.410Z,2.99
2024-01-09T14:29:32.663Z,2.65
2024-01-09T14:32:01.170Z,3.02
2024-01-09T14:34:30.468Z,3.25
2024-01-09T14:36:58.677Z,2.59
2024-01-09T14:39:27.185Z,2.83
2024-01-09T14:41:56.019Z,3.06
2024-01-09T14:44:24.484Z,2.45
2024-01-09T14:47:00.100Z,2.35
2024-01-09T14:49:28.386Z,2.66
2024-01-09T14:51:57.829Z,2.49
2024-01-09T14:54:28.796Z,1.64
2024-01-09T14:56:59.178Z,1.47
2024-01-09T14:59:28.023Z,1.01
2024-01-09T15:01:56.152Z,0.66
2024-01-09T15:04:24.450Z,0.41
2024-01-09T15:06:57.540Z,0.30
2024-01-09T15:09:31.968Z,0.22
2024-01-09T15:12:03.131Z,0.12
2024-01-09T15:14:34.478Z,0.07
2024-01-09T15:17:03.966Z,0.07
2024-01-09T15:19:32.240Z,-0.01
2024-01-09T15:22:03.030Z,-0.11
2024-01-09T15:24:34.539Z,-0.26
2024-01-09T15:27:03.002Z,-0.34
2024-01-09T15:29:33.808Z,-0.45
2024-01-09T15:32:05.601Z,-0.53
2024-01-09T15:34:37.779Z,-0.60
2024-01-09T15:37:07.771Z,-0.64
2024-01-09T15:39:39.918Z,-0.72
2024-01-09T15:42:13.036Z,-0.80
2024-01-09T15:44:42.968Z,-0.79
2024-01-09T15:47:15.284Z,-0.82
2024-01-09T15:49:44.834Z,-0.89
2024-01-09T15:52:18.359Z,-0.94
2024-01-09T15:54:53.301Z,-1.01
2024-01-09T15:57:25.451Z,-1.10
2024-01-09T15:59:55.714Z,-1.05
2024-01-09T16:02:24.349Z,-1.11
2024-01-09T16:04:54.074Z,-1.12
2024-01-09T16:07:25.621Z,-1.11
2024-01-09T16:09:57.705Z,-1.14
2024-01-09T16:12:27.966Z,-1.19
2024-01-09T16:14:57.222Z,-1.17
2024-01-09T16:17:26.519Z,-1.25
2024-01-09T16:19:55.219Z,-1.27
2024-01-09T16:22:23.731Z,-1.26
2024-01-09T16:24:52.255Z,-1.27
2024-01-09T16:27:44.876Z,-1.25
2024-01-09T16:30:26.339Z,-1.33
2024-01-09T16:32:54.989Z,-1.41
2024-01-09T16:35:24.936Z,-1.45
2024-01-09T16:37:55.483Z,-1.58
2024-01-09T16:40:26.656Z,-1.61
2024-01-09T16:42:57.702Z,-1.61
2024-01-09T16:45:26.477Z,-1.60
2024-01-09T16:48:01.134Z,-1.57
2024-01-09T16:50:29.696Z,-1.63
2024-01-09T16:53:00.511Z,-1.69
2024-01-09T16:55:30.006Z,-1.72
2024-01-09T16:58:00.593Z,-1.73
2024-01-09T17:00:30.025Z,-1.78
2024-01-09T17:03:05.013Z,-1.75
2024-01-09T17:05:34.634Z,-1.70
2024-01-09T17:08:03.373Z,-1.78
2024-01-09T17:10:33.258Z,-1.72
2024-01-09T17:13:03.735Z,-1.83
2024-01-09T17:15:31.852Z,-1.85
2024-01-09T17:18:02.639Z,-1.86
2024-01-09T17:20:33.459Z,-1.89
2024-01-09T17:23:03.344Z,-1.90
2024-01-09T17:25:32.122Z,-1.95
2024-01-09T17:28:27.259Z,-1.97
2024-01-09T17:30:55.861Z,-1.98
2024-01-09T17:33:25.554Z,-1.96
2024-01-09T17:35:54.249Z,-2.06
2024-01-09T17:38:23.642Z,-2.03
2024-01-09T17:40:52.156Z,-2.03
2024-01-09T17:43:21.761Z,-2.10
2024-01-09T17:45:53.302Z,-2.11
2024-01-09T17:48:22.399Z,-2.16
2024-01-09T17:50:50.826Z,-2.19
2024-01-09T17:53:19.999Z,-2.26
2024-01-09T17:55:51.585Z,-2.27
2024-01-09T17:58:22.092Z,-2.25
2024-01-09T18:00:51.837Z,-2.21
2024-01-09T18:03:20.933Z,-2.27
2024-01-09T18:05:50.808Z,-2.32
2024-01-09T18:08:20.699Z,-2.37
2024-01-09T18:10:50.986Z,-2.37
2024-01-09T18:13:19.860Z,-2.43
2024-01-09T18:15:49.725Z,-2.46
2024-01-09T18:18:19.823Z,-2.54
2024-01-09T18:20:48.494Z,-2.55
2024-01-09T18:23:19.795Z,-2.64
2024-01-09T18:25:48.648Z,-2.67
2024-01-09T18:28:26.509Z,-2.65
2024-01-09T18:30:57.808Z,-2.61
2024-01-09T18:33:27.679Z,-2.59
2024-01-09T18:36:01.795Z,-2.69
2024-01-09T18:38:32.364Z,-2.69
2024-01-09T18:41:02.078Z,-2.76
2024-01-09T18:43:30.294Z,-2.77
2024-01-09T18:46:01.253Z,-2.76
2024-01-09T18:48:34.748Z,-2.78
2024-01-09T18:51:03.803Z,-2.75
2024-01-09T18:53:33.229Z,-2.82
2024-01-09T18:56:04.882Z,-2.87
2024-01-09T18:58:34.072Z,-2.85
2024-01-09T19:01:05.432Z,-2.87
2024-01-09T19:03:36.434Z,-2.86
2024-01-09T19:06:08.056Z,-2.90
2024-01-09T19:08:36.482Z,-2.90
2024-01-09T19:11:05.988Z,-2.98
2024-01-09T19:13:37.723Z,-3.07
2024-01-09T19:16:07.197Z,-3.01
2024-01-09T19:18:40.005Z,-3.11
2024-01-09T19:21:09.512Z,-3.23
2024-01-09T19:23:39.296Z,-3.19
2024-01-09T19:26:11.797Z,-3.21
2024-01-09T19:28:40.119Z,-3.26
2024-01-09T19:31:11.975Z,-3.33
2024-01-09T19:33:45.678Z,-3.25
2024-01-09T19:36:15.160Z,-3.39
2024-01-09T19:38:48.478Z,-3.47
2024-01-09T19:41:20.125Z,-3.41
2024-01-09T19:43:49.188Z,-3.46
2024-01-09T19:46:20.953Z,-3.50
2024-01-09T19:48:59.563Z,-3.49
2024-01-09T19:51:28.954Z,-3.57
2024-01-09T19:53:57.191Z,-3.55
2024-01-09T19:56:28.963Z,-3.54
2024-01-09T19:58:57.455Z,-3.58
2024-01-09T20:01:26.253Z,-3.62
2024-01-09T20:03:58.414Z,-3.69
2024-01-09T20:06:27.168Z,-3.74
2024-01-09T20:08:57.620Z,-3.69
2024-01-09T20:11:30.292Z,-3.76
2024-01-09T20:14:00.974Z,-3.77
2024-01-09T20:16:30.291Z,-3.80
2024-01-09T20:19:01.848Z,-3.83
2024-01-09T20:21:49.523Z,-3.93
2024-01-09T20:24:42.214Z,-3.95
2024-01-09T20:27:10.958Z,-4.09
2024-01-09T20:29:44.811Z,-4.05
2024-01-09T20:32:15.002Z,-4.07
2024-01-09T20:34:44.925Z,-4.07
2024-01-09T20:37:17.979Z,-4.18
2024-01-09T20:39:54.009Z,-4.28
2024-01-09T20:42:22.382Z,-4.27
2024-01-09T20:44:50.855Z,-4.33
2024-01-09T20:47:20.745Z,-4.34
2024-01-09T20:49:52.547Z,-4.32
2024-01-09T20:52:30.095Z,-4.35
2024-01-09T20:54:58.965Z,-4.25
2024-01-09T20:57:55.506Z,-4.30
2024-01-09T21:00:28.378Z,-4.31
2024-01-09T21:02:59.912Z,-4.22
2024-01-09T21:05:36.623Z,-4.30
2024-01-09T21:08:08.806Z,-4.33
2024-01-09T21:10:40.965Z,-4.25
2024-01-09T21:13:17.497Z,-4.26
2024-01-09T21:15:46.448Z,-4.38
2024-01-09T21:18:18.524Z,-4.39
2024-01-09T21:20:48.292Z,-4.37
2024-01-09T21:23:24.520Z,-4.42
2024-01-09T21:26:01.895Z,-4.42
2024-01-09T21:28:30.685Z,-4.41
2024-01-09T21:30:58.736Z,-4.47
2024-01-09T21:33:27.986Z,-4.45
2024-01-09T21:35:59.010Z,-4.51
2024-01-09T21:38:27.307Z,-4.57
2024-01-09T21:40:59.211Z,-4.58
2024-01-09T21:43:28.965Z,-4.59
2024-01-09T21:45:57.194Z,-4.59
2024-01-09T21:48:26.327Z,-4.59
2024-01-09T21:50:55.452Z,-4.61
2024-01-09T21:53:28.061Z,-4.59
2024-01-09T21:55:57.014Z,-4.64
2024-01-09T21:58:28.573Z,-4.64
2024-01-09T22:00:57.512Z,-4.65
2024-01-09T22:03:28.085Z,-4.70
2024-01-09T22:05:58.024Z,-4.72
2024-01-09T22:08:29.533Z,-4.75
2024-01-09T22:11:00.418Z,-4.72
2024-01-09T22:13:30.531Z,-4.82
2024-01-09T22:15:59.007Z,-4.85
2024-01-09T22:18:29.509Z,-4.87
2024-01-09T22:21:01.400Z,-4.82
2024-01-09T22:23:31.107Z,-4.91
2024-01-09T22:25:59.552Z,-4.86
2024-01-09T22:28:27.935Z,-4.87
2024-01-09T22:30:56.358Z,-4.86
2024-01-09T22:33:25.026Z,-4.88
2024-01-09T22:35:57.575Z,-4.91
2024-01-09T22:38:28.249Z,-5.00
2024-01-09T22:40:58.481Z,-4.97
2024-01-09T22:43:26.671Z,-4.96
2024-01-09T22:45:54.997Z,-5.00
2024-01-09T22:48:23.638Z,-5.03
2024-01-09T22:50:54.721Z,-5.00
2024-01-09T22:53:24.174Z,-5.05
2024-01-09T22:55:54.061Z,-5.02
2024-01-09T22:58:23.737Z,-5.14
2024-01-09T23:00:52.375Z,-5.11
2024-01-09T23:03:23.061Z,-5.07
2024-01-09T23:05:51.625Z,-5.13
2024-01-09T23:08:21.342Z,-5.15
2024-01-09T23:10:54.609Z,-5.12
2024-01-09T23:13:25.059Z,-5.14
2024-01-09T23:15:53.417Z,-5.12
2024-01-09T23:18:25.418Z,-5.14
2024-01-09T23:20:55.516Z,-5.10
2024-01-09T23:23:23.800Z,-5.20
2024-01-09T23:25:52.113Z,-5.22
2024-01-09T23:28:20.127Z,-5.18
2024-01-09T23:30:50.517Z,-5.22
2024-01-09T23:33:19.308Z,-5.20
2024-01-09T23:35:47.505Z,-5.17
2024-01-09T23:38:20.469Z,-5.17
2024-01-09T23:40:48.378Z,-5.18
2024-01-09T23:43:16.360Z,-5.15
2024-01-09T23:45:45.608Z,-5.20
2024-01-09T23:48:16.403Z,-5.17
2024-01-09T23:50:44.485Z,-5.18
2024-01-09T23:53:12.808Z,-5.15
2024-01-09T23:55:41.185Z,-5.16
2024-01-09T23:58:10.790Z,-5.20
